Time;durP1;ratioP1;P1;durP2;ratioP2;P2;SDS_P1;SDS_P2;PMS_P1;PMS_P2;Temp;Humidity;BMP_temperature;BMP_pressure;BME280_temperature;BME280_humidity;BME280_pressure;Samples;Min_cycle;Max_cycle;Signal;HPM_P1;HPM_P2
2023/09/09 06:01:59;;;;;;;22.90;14.93;;;;;;;;;;5173201;23;20553;-71
2023/09/09 06:04:25;;;;;;;27.70;15.93;;;;;;;;;;4917258;29;20418;-71
2023/09/09 06:06:51;;;;;;;24.73;15.40;;;;;;;;;;4917360;29;20413;-71
2023/09/09 06:09:17;;;;;;;26.77;14.77;;;;;;;;;;4917274;29;20407;-71
2023/09/09 06:11:43;;;;;;;27.03;14.80;;;;;;;;;;4924614;29;20458;-70
2023/09/09 06:14:09;;;;;;;21.23;14.97;;;;;;;;;;4931544;29;20437;-70
2023/09/09 06:16:35;;;;;;;21.33;14.83;;;;;;;;;;4923453;29;20415;-72
2023/09/09 06:19:02;;;;;;;22.97;14.47;;;;;;;;;;4917187;29;20476;-71
2023/09/09 06:21:27;;;;;;;21.67;15.00;;;;;;;;;;4916681;29;20427;-72
2023/09/09 06:23:54;;;;;;;23.80;15.57;;;;;;;;;;4916884;29;20421;-71
2023/09/09 06:26:20;;;;;;;23.70;15.37;;;;;;;;;;4916729;29;20922;-71
2023/09/09 06:28:46;;;;;;;27.57;14.30;;;;;;;;;;4917101;29;20497;-71
2023/09/09 06:31:12;;;;;;;26.13;14.87;;;;;;;;;;4916949;29;20716;-72
2023/09/09 06:33:38;;;;;;;23.43;15.80;;;;;;;;;;4916865;29;20786;-71
2023/09/09 06:36:04;;;;;;;22.30;14.50;;;;;;;;;;4915285;29;20423;-72
2023/09/09 06:38:30;;;;;;;19.30;13.87;;;;;;;;;;4916505;29;20826;-72
2023/09/09 06:40:56;;;;;;;23.53;14.53;;;;;;;;;;4916276;29;20469;-72
2023/09/09 06:43:22;;;;;;;23.50;14.60;;;;;;;;;;4916546;29;20415;-71
2023/09/09 06:45:48;;;;;;;20.33;15.20;;;;;;;;;;4916702;29;20913;-72
2023/09/09 06:48:17;;;;;;;23.90;15.83;;;;;;;;;;4916122;29;20437;-72
2023/09/09 06:50:45;;;;;;;19.07;13.43;;;;;;;;;;4916131;29;20444;-72
2023/09/09 06:53:11;;;;;;;22.33;14.77;;;;;;;;;;4914877;29;20509;-72
2023/09/09 06:55:36;;;;;;;22.10;15.73;;;;;;;;;;4916480;29;20514;-72
2023/09/09 06:58:03;;;;;;;21.00;14.77;;;;;;;;;;4916205;29;20977;-72
2023/09/09 07:00:29;;;;;;;19.20;15.17;;;;;;;;;;4914831;29;20442;-71
2023/09/09 07:02:55;;;;;;;24.10;16.20;;;;;;;;;;4916003;29;20952;-72
2023/09/09 07:05:22;;;;;;;23.30;15.30;;;;;;;;;;4916054;29;20418;-73
2023/09/09 07:07:48;;;;;;;24.87;14.57;;;;;;;;;;4915710;29;20930;-72
2023/09/09 07:10:14;;;;;;;20.43;13.93;;;;;;;;;;4914038;29;20964;-72
2023/09/09 07:12:41;;;;;;;20.23;13.93;;;;;;;;;;4916222;29;20430;-72
2023/09/09 07:15:07;;;;;;;20.67;14.50;;;;;;;;;;4915899;29;20529;-72
2023/09/09 07:17:34;;;;;;;23.00;13.47;;;;;;;;;;4914317;29;20538;-71
2023/09/09 07:20:00;;;;;;;17.27;12.97;;;;;;;;;;4916321;29;20419;-73
2023/09/09 07:22:26;;;;;;;24.43;14.17;;;;;;;;;;4916108;29;21001;-73
2023/09/09 07:24:52;;;;;;;18.10;13.67;;;;;;;;;;4916624;29;20422;-72
2023/09/09 07:27:18;;;;;;;20.47;14.57;;;;;;;;;;4914000;29;20498;-73
2023/09/09 07:29:44;;;;;;;22.43;13.07;;;;;;;;;;4915690;29;20415;-72
2023/09/09 07:32:10;;;;;;;20.97;15.10;;;;;;;;;;4915518;29;20521;-72
2023/09/09 07:34:36;;;;;;;23.83;14.63;;;;;;;;;;4915238;29;20421;-72
2023/09/09 07:37:02;;;;;;;22.37;14.27;;;;;;;;;;4915398;29;20490;-71
2023/09/09 07:39:28;;;;;;;19.57;13.20;;;;;;;;;;4914688;29;20433;-72
2023/09/09 07:41:54;;;;;;;23.10;14.10;;;;;;;;;;4913914;29;20852;-71
2023/09/09 07:44:20;;;;;;;19.87;14.93;;;;;;;;;;4915630;29;20712;-71
2023/09/09 07:46:46;;;;;;;20.67;14.77;;;;;;;;;;4914792;29;20445;-73
2023/09/09 07:49:13;;;;;;;31.37;14.73;;;;;;;;;;4914578;29;20419;-71
2023/09/09 07:51:39;;;;;;;18.40;13.93;;;;;;;;;;4914116;29;20522;-71
2023/09/09 07:54:05;;;;;;;23.00;15.80;;;;;;;;;;4914693;29;20510;-71
2023/09/09 07:56:32;;;;;;;18.40;13.50;;;;;;;;;;4914550;29;20442;-71
2023/09/09 07:58:57;;;;;;;22.67;14.13;;;;;;;;;;4914744;29;20480;-71
2023/09/09 08:01:24;;;;;;;25.70;13.63;;;;;;;;;;4914707;29;20446;-72
2023/09/09 08:03:50;;;;;;;21.43;13.83;;;;;;;;;;4914960;29;20426;-72
2023/09/09 08:06:16;;;;;;;25.33;13.20;;;;;;;;;;4913567;29;20419;-73
2023/09/09 08:08:42;;;;;;;18.97;12.80;;;;;;;;;;4903015;29;20934;-71
2023/09/09 08:11:07;;;;;;;19.73;13.40;;;;;;;;;;4893520;29;20464;-70
2023/09/09 08:13:33;;;;;;;19.03;12.83;;;;;;;;;;4894801;29;20486;-72
2023/09/09 08:15:59;;;;;;;22.33;13.10;;;;;;;;;;4900140;29;20484;-71
2023/09/09 08:18:25;;;;;;;23.83;13.80;;;;;;;;;;4895440;29;20471;-72
2023/09/09 08:20:51;;;;;;;15.57;12.90;;;;;;;;;;4905246;29;20459;-71
2023/09/09 08:23:18;;;;;;;20.13;13.80;;;;;;;;;;4892343;29;20515;-71
2023/09/09 08:25:44;;;;;;;18.77;13.20;;;;;;;;;;4897158;29;20494;-71
2023/09/09 08:28:10;;;;;;;18.33;13.20;;;;;;;;;;4897866;29;20427;-73
2023/09/09 08:30:36;;;;;;;17.20;12.63;;;;;;;;;;4897045;29;20455;-72
2023/09/09 08:33:02;;;;;;;29.83;13.47;;;;;;;;;;4899486;29;20947;-72
2023/09/09 08:35:31;;;;;;;17.83;13.43;;;;;;;;;;4899543;29;20431;-72
2023/09/09 08:37:59;;;;;;;15.13;12.30;;;;;;;;;;4898573;29;20459;-72
2023/09/09 08:40:25;;;;;;;16.30;11.93;;;;;;;;;;4898658;29;20498;-71
2023/09/09 08:43:18;;;;;;;19.10;11.57;;;;;;;;;;4898293;29;20442;-72
2023/09/09 08:46:01;;;;;;;18.70;13.70;;;;;;;;;;4897911;29;20457;-73
2023/09/09 08:48:28;;;;;;;18.67;12.60;;;;;;;;;;4899108;29;20518;-72
2023/09/09 08:50:59;;;;;;;16.73;12.90;;;;;;;;;;4899181;29;20442;-73
2023/09/09 08:53:26;;;;;;;17.43;12.10;;;;;;;;;;4895453;29;20914;-72
2023/09/09 08:55:55;;;;;;;23.40;14.20;;;;;;;;;;4899996;29;20420;-72
2023/09/09 08:58:21;;;;;;;17.90;13.30;;;;;;;;;;4899417;29;20514;-72
2023/09/09 09:00:47;;;;;;;17.10;13.87;;;;;;;;;;4892290;29;20464;-73
2023/09/09 09:03:13;;;;;;;16.50;12.90;;;;;;;;;;4898882;29;20415;-72
2023/09/09 09:05:40;;;;;;;18.10;14.00;;;;;;;;;;4899586;29;20794;-73
2023/09/09 09:08:08;;;;;;;17.33;12.77;;;;;;;;;;4899397;29;20499;-72
2023/09/09 09:10:34;;;;;;;17.47;13.43;;;;;;;;;;4899530;29;20813;-72
2023/09/09 09:13:00;;;;;;;22.33;13.13;;;;;;;;;;4899759;29;20431;-72
2023/09/09 09:15:28;;;;;;;15.70;11.93;;;;;;;;;;4899882;29;20435;-73
2023/09/09 09:17:54;;;;;;;21.60;14.30;;;;;;;;;;4899612;29;20474;-72
2023/09/09 09:20:25;;;;;;;17.63;13.03;;;;;;;;;;4900040;29;20570;-72
2023/09/09 09:22:51;;;;;;;23.27;13.87;;;;;;;;;;4900055;29;20431;-72
2023/09/09 09:25:21;;;;;;;21.43;13.73;;;;;;;;;;4899182;29;20419;-73
2023/09/09 09:27:47;;;;;;;18.33;12.83;;;;;;;;;;4899057;29;20430;-72
2023/09/09 09:30:13;;;;;;;20.37;13.23;;;;;;;;;;4898566;29;21122;-73
2023/09/09 09:32:40;;;;;;;16.50;12.27;;;;;;;;;;4897433;29;20431;-72
2023/09/09 09:35:07;;;;;;;16.83;11.93;;;;;;;;;;4898124;29;20463;-72
2023/09/09 09:37:33;;;;;;;16.23;12.57;;;;;;;;;;4892915;29;20470;-73
2023/09/09 09:39:59;;;;;;;17.80;12.60;;;;;;;;;;4895573;29;20424;-72
2023/09/09 09:42:26;;;;;;;15.80;11.33;;;;;;;;;;4898150;29;20435;-72
2023/09/09 09:45:07;;;;;;;12.80;10.17;;;;;;;;;;4898082;29;20423;-72
2023/09/09 09:47:47;;;;;;;15.80;11.53;;;;;;;;;;4897877;29;20895;-71
2023/09/09 09:50:17;;;;;;;18.83;13.13;;;;;;;;;;4898052;29;20423;-72
2023/09/09 09:52:48;;;;;;;13.70;11.43;;;;;;;;;;4894647;29;20905;-72
2023/09/09 09:55:17;;;;;;;19.43;13.50;;;;;;;;;;4895505;29;20495;-66
2023/09/09 09:57:46;;;;;;;18.93;13.20;;;;;;;;;;4899975;29;20970;-65
2023/09/09 10:00:13;;;;;;;16.93;12.43;;;;;;;;;;4910581;29;20455;-71
2023/09/09 10:02:41;;;;;;;14.00;11.60;;;;;;;;;;4898463;29;20566;-72
2023/09/09 10:05:08;;;;;;;16.63;11.10;;;;;;;;;;4908872;29;20514;-72
2023/09/09 10:07:36;;;;;;;12.60;9.90;;;;;;;;;;4916259;29;20438;-71
2023/09/09 10:10:07;;;;;;;13.70;10.20;;;;;;;;;;4917006;29;20422;-71
2023/09/09 10:12:46;;;;;;;15.00;11.37;;;;;;;;;;4915541;29;20434;-71
2023/09/09 10:15:15;;;;;;;14.17;10.80;;;;;;;;;;4915866;29;20434;-71
2023/09/09 10:17:41;;;;;;;13.97;10.40;;;;;;;;;;4915546;29;20986;-70
2023/09/09 10:20:08;;;;;;;15.70;11.27;;;;;;;;;;4913917;29;20801;-71
2023/09/09 10:22:34;;;;;;;14.83;10.83;;;;;;;;;;4915333;29;20494;-71
2023/09/09 10:25:03;;;;;;;15.57;11.97;;;;;;;;;;4915912;29;20437;-71
2023/09/09 10:27:29;;;;;;;17.60;11.20;;;;;;;;;;4915549;29;20891;-71
2023/09/09 10:29:56;;;;;;;15.30;11.10;;;;;;;;;;4915861;29;20434;-70
2023/09/09 10:32:22;;;;;;;24.13;10.90;;;;;;;;;;4916605;29;20445;-70
2023/09/09 10:34:50;;;;;;;17.07;11.00;;;;;;;;;;4916302;29;20418;-72
2023/09/09 10:37:18;;;;;;;13.30;10.60;;;;;;;;;;4915566;29;20468;-71
2023/09/09 10:39:46;;;;;;;17.33;10.70;;;;;;;;;;4915705;29;20414;-71
2023/09/09 10:42:12;;;;;;;12.57;10.50;;;;;;;;;;4915010;29;20513;-71
2023/09/09 10:44:38;;;;;;;16.10;10.63;;;;;;;;;;4915488;29;20514;-70
2023/09/09 10:47:07;;;;;;;14.53;10.70;;;;;;;;;;4916043;29;20425;-70
2023/09/09 10:49:33;;;;;;;14.40;10.87;;;;;;;;;;4914791;29;20418;-72
2023/09/09 10:51:59;;;;;;;16.07;11.77;;;;;;;;;;4914824;29;20438;-71
2023/09/09 10:54:27;;;;;;;18.93;10.40;;;;;;;;;;4914932;29;20434;-71
2023/09/09 10:56:54;;;;;;;15.27;10.50;;;;;;;;;;4916018;29;20407;-72
2023/09/09 10:59:24;;;;;;;13.07;9.73;;;;;;;;;;4915769;29;20469;-71
2023/09/09 11:02:13;;;;;;;16.57;10.13;;;;;;;;;;4915213;29;20458;-71
2023/09/09 11:04:40;;;;;;;18.03;10.77;;;;;;;;;;4913724;29;20812;-72
2023/09/09 11:07:07;;;;;;;13.97;10.10;;;;;;;;;;4916226;29;20518;-71
2023/09/09 11:09:33;;;;;;;17.33;9.93;;;;;;;;;;4915023;29;20445;-71
2023/09/09 11:11:59;;;;;;;20.60;11.90;;;;;;;;;;4913972;29;20478;-71
2023/09/09 11:14:31;;;;;;;19.80;10.37;;;;;;;;;;4914243;29;20781;-71
2023/09/09 11:16:57;;;;;;;13.10;10.47;;;;;;;;;;4915077;29;20508;-71
2023/09/09 11:19:23;;;;;;;15.60;11.77;;;;;;;;;;4915845;29;20419;-71
2023/09/09 11:21:50;;;;;;;18.10;10.70;;;;;;;;;;4914974;29;20475;-72
2023/09/09 11:24:17;;;;;;;16.50;11.23;;;;;;;;;;4916998;29;20426;-72
2023/09/09 11:26:47;;;;;;;14.97;10.93;;;;;;;;;;4916756;29;20457;-72
2023/09/09 11:29:13;;;;;;;12.93;10.50;;;;;;;;;;4916264;29;20419;-72
2023/09/09 11:31:39;;;;;;;16.60;11.13;;;;;;;;;;4915356;29;20442;-72
2023/09/09 11:34:05;;;;;;;22.87;11.20;;;;;;;;;;4914122;29;20459;-72
2023/09/09 11:36:31;;;;;;;15.90;10.63;;;;;;;;;;4915494;29;20443;-72
2023/09/09 11:38:59;;;;;;;21.83;10.77;;;;;;;;;;4915143;29;20470;-72
2023/09/09 11:41:25;;;;;;;16.63;10.07;;;;;;;;;;4914771;29;20446;-72
2023/09/09 11:44:01;;;;;;;17.10;9.73;;;;;;;;;;4915066;29;20490;-72
2023/09/09 11:46:30;;;;;;;11.80;9.30;;;;;;;;;;4915241;29;20442;-73
2023/09/09 11:48:56;;;;;;;21.00;9.77;;;;;;;;;;4914815;29;20433;-72
2023/09/09 11:51:22;;;;;;;16.70;9.17;;;;;;;;;;4914816;29;20804;-72
2023/09/09 11:53:48;;;;;;;20.43;9.63;;;;;;;;;;4907689;29;20499;-72
2023/09/09 11:56:15;;;;;;;13.73;8.27;;;;;;;;;;4893563;29;20473;-73
2023/09/09 11:58:41;;;;;;;18.23;8.90;;;;;;;;;;4895635;29;21100;-73
2023/09/09 12:01:08;;;;;;;16.80;8.47;;;;;;;;;;4899599;29;20451;-74
2023/09/09 12:03:34;;;;;;;16.57;10.00;;;;;;;;;;4918357;29;20418;-72
2023/09/09 12:06:02;;;;;;;15.33;7.90;;;;;;;;;;4916801;29;20493;-72
2023/09/09 12:08:28;;;;;;;15.07;8.03;;;;;;;;;;4918658;29;20898;-72
2023/09/09 12:10:55;;;;;;;16.27;10.10;;;;;;;;;;4918375;29;20497;-72
2023/09/09 12:13:21;;;;;;;15.10;7.60;;;;;;;;;;4918307;29;20918;-72
2023/09/09 12:15:48;;;;;;;16.73;8.13;;;;;;;;;;4937128;23;20499;-70
2023/09/09 12:18:14;;;;;;;16.10;7.27;;;;;;;;;;4911217;29;20988;-70
2023/09/09 12:21:05;;;;;;;16.67;8.57;;;;;;;;;;4918442;29;20509;-71
2023/09/09 12:23:32;;;;;;;27.43;8.77;;;;;;;;;;4918309;29;20454;-71
2023/09/09 12:26:07;;;;;;;12.80;8.20;;;;;;;;;;4917797;29;20438;-71
2023/09/09 12:28:33;;;;;;;16.27;7.90;;;;;;;;;;4918138;29;20425;-70
2023/09/09 12:30:59;;;;;;;18.30;8.30;;;;;;;;;;4918349;29;20490;-72
2023/09/09 12:33:25;;;;;;;20.13;7.70;;;;;;;;;;4917927;29;20410;-71
2023/09/09 12:35:51;;;;;;;23.43;7.33;;;;;;;;;;4917828;29;20813;-71
2023/09/09 12:38:18;;;;;;;14.67;7.17;;;;;;;;;;4917670;29;20477;-72
2023/09/09 12:40:45;;;;;;;15.30;8.53;;;;;;;;;;4918300;29;20839;-71
2023/09/09 12:43:12;;;;;;;13.33;7.63;;;;;;;;;;4917981;29;20865;-71
2023/09/09 12:45:47;;;;;;;15.80;8.23;;;;;;;;;;4918041;29;20449;-72
2023/09/09 12:48:13;;;;;;;11.77;7.73;;;;;;;;;;4918018;29;20512;-71
2023/09/09 12:50:39;;;;;;;18.40;7.70;;;;;;;;;;4917291;29;20434;-69
2023/09/09 12:53:05;;;;;;;21.47;7.87;;;;;;;;;;4917569;29;20425;-72
2023/09/09 12:55:31;;;;;;;24.57;8.33;;;;;;;;;;4917898;29;20438;-72
2023/09/09 12:57:57;;;;;;;14.67;7.37;;;;;;;;;;4917861;29;20462;-71
2023/09/09 13:00:23;;;;;;;13.90;7.97;;;;;;;;;;4917669;29;20787;-71
2023/09/09 13:02:49;;;;;;;15.07;8.37;;;;;;;;;;4916938;29;20422;-71
2023/09/09 13:05:15;;;;;;;18.07;8.13;;;;;;;;;;4917406;29;20937;-71
2023/09/09 13:07:41;;;;;;;17.80;7.60;;;;;;;;;;4917571;29;21074;-72
2023/09/09 13:10:07;;;;;;;14.63;7.70;;;;;;;;;;4916890;29;20807;-72
2023/09/09 13:12:33;;;;;;;14.93;8.23;;;;;;;;;;4916716;29;20728;-71
2023/09/09 13:14:59;;;;;;;14.13;7.80;;;;;;;;;;4917541;29;20411;-71
2023/09/09 13:17:25;;;;;;;13.50;7.30;;;;;;;;;;4917317;29;20957;-71
2023/09/09 13:19:51;;;;;;;11.90;7.00;;;;;;;;;;4917611;29;20433;-72
2023/09/09 13:22:17;;;;;;;18.33;7.60;;;;;;;;;;4916670;29;20898;-71
2023/09/09 13:24:43;;;;;;;13.30;8.13;;;;;;;;;;4917366;29;20833;-71
2023/09/09 13:27:09;;;;;;;15.80;8.00;;;;;;;;;;4917270;29;20808;-72
2023/09/09 13:29:35;;;;;;;15.93;7.87;;;;;;;;;;4915993;29;20810;-72
2023/09/09 13:32:02;;;;;;;13.10;7.40;;;;;;;;;;4916693;29;20419;-71
2023/09/09 13:34:29;;;;;;;16.00;7.60;;;;;;;;;;4917207;29;20752;-71
2023/09/09 13:36:55;;;;;;;12.70;8.03;;;;;;;;;;4917113;29;20434;-71
2023/09/09 13:39:20;;;;;;;16.40;8.20;;;;;;;;;;4916166;29;20470;-72
2023/09/09 13:41:46;;;;;;;11.70;8.00;;;;;;;;;;4916908;29;20830;-72
2023/09/09 13:44:12;;;;;;;11.90;8.50;;;;;;;;;;4916368;29;20895;-70
2023/09/09 13:46:39;;;;;;;25.77;8.33;;;;;;;;;;4916889;29;20434;-72
2023/09/09 13:49:07;;;;;;;16.13;9.43;;;;;;;;;;4916657;29;20414;-69
2023/09/09 13:51:33;;;;;;;13.03;8.00;;;;;;;;;;4914683;29;20443;-70
2023/09/09 13:53:59;;;;;;;12.50;8.60;;;;;;;;;;4916035;29;20498;-70
2023/09/09 13:56:25;;;;;;;15.87;8.17;;;;;;;;;;4892018;29;21037;-70
2023/09/09 13:58:51;;;;;;;16.57;8.67;;;;;;;;;;4897215;29;20459;-70
2023/09/09 14:01:17;;;;;;;12.50;8.27;;;;;;;;;;4903573;29;20427;-70
2023/09/09 14:03:43;;;;;;;20.70;9.97;;;;;;;;;;4916465;29;20453;-69
2023/09/09 14:06:09;;;;;;;19.17;8.80;;;;;;;;;;4915439;29;20437;-69
2023/09/09 14:08:36;;;;;;;21.00;9.40;;;;;;;;;;4916635;29;20517;-69
2023/09/09 14:11:02;;;;;;;15.67;8.20;;;;;;;;;;4916785;29;20410;-70
2023/09/09 14:13:28;;;;;;;17.00;8.73;;;;;;;;;;4916207;29;20441;-70
2023/09/09 14:15:53;;;;;;;27.30;9.10;;;;;;;;;;4916336;29;20466;-70
2023/09/09 14:18:19;;;;;;;13.83;8.67;;;;;;;;;;4916038;29;20478;-70
2023/09/09 14:20:45;;;;;;;18.47;8.90;;;;;;;;;;4916407;29;20414;-70
2023/09/09 14:23:12;;;;;;;11.10;7.90;;;;;;;;;;4915951;29;20415;-69
2023/09/09 14:25:38;;;;;;;15.10;7.93;;;;;;;;;;4916002;29;20450;-69
2023/09/09 14:28:04;;;;;;;12.87;8.77;;;;;;;;;;4915817;29;20411;-70
2023/09/09 14:30:30;;;;;;;14.03;8.77;;;;;;;;;;4916384;29;20782;-70
2023/09/09 14:32:56;;;;;;;15.70;8.87;;;;;;;;;;4915922;29;20421;-70
2023/09/09 14:35:22;;;;;;;15.37;9.67;;;;;;;;;;4916104;29;20463;-70
2023/09/09 14:37:48;;;;;;;15.70;9.93;;;;;;;;;;4915734;29;20466;-70
2023/09/09 14:40:14;;;;;;;15.73;8.87;;;;;;;;;;4915997;29;20426;-70
2023/09/09 14:42:43;;;;;;;15.77;9.50;;;;;;;;;;4915873;29;20427;-70
2023/09/09 14:45:09;;;;;;;12.80;9.00;;;;;;;;;;4916227;29;20414;-70
2023/09/09 14:47:35;;;;;;;18.70;9.07;;;;;;;;;;4916449;29;20419;-70
2023/09/09 14:50:01;;;;;;;17.47;9.43;;;;;;;;;;4915878;29;20435;-70
2023/09/09 14:52:29;;;;;;;14.10;9.40;;;;;;;;;;4916317;29;20762;-70
2023/09/09 14:54:55;;;;;;;18.77;8.50;;;;;;;;;;4916334;29;20843;-70
2023/09/09 14:57:21;;;;;;;14.60;8.73;;;;;;;;;;4916055;29;20481;-70
2023/09/09 14:59:48;;;;;;;17.77;8.07;;;;;;;;;;4916164;29;20418;-70
2023/09/09 15:02:13;;;;;;;15.00;9.27;;;;;;;;;;4915570;29;20506;-70
2023/09/09 15:04:40;;;;;;;13.63;8.80;;;;;;;;;;4916067;29;20522;-70
2023/09/09 15:07:06;;;;;;;24.00;10.47;;;;;;;;;;4915959;29;20490;-70
2023/09/09 15:09:32;;;;;;;18.43;9.30;;;;;;;;;;4916203;29;20905;-70
2023/09/09 15:11:58;;;;;;;15.53;8.47;;;;;;;;;;4915408;29;20442;-71
2023/09/09 15:14:24;;;;;;;20.77;9.10;;;;;;;;;;4915799;29;20841;-71
2023/09/09 15:16:58;;;;;;;17.30;9.27;;;;;;;;;;4916076;29;20458;-71
2023/09/09 15:19:24;;;;;;;17.83;9.27;;;;;;;;;;4915903;29;20894;-71
2023/09/09 15:21:50;;;;;;;12.07;8.43;;;;;;;;;;4916445;29;20552;-71
2023/09/09 15:24:16;;;;;;;16.53;8.90;;;;;;;;;;4915687;29;20434;-71
2023/09/09 15:26:42;;;;;;;16.60;9.03;;;;;;;;;;4915656;29;20953;-71
2023/09/09 15:29:08;;;;;;;17.80;8.67;;;;;;;;;;4916048;29;20781;-71
2023/09/09 15:31:34;;;;;;;14.77;8.23;;;;;;;;;;4915352;29;20545;-71
2023/09/09 15:34:00;;;;;;;17.53;9.30;;;;;;;;;;4915011;29;20441;-71
2023/09/09 15:36:27;;;;;;;16.67;8.50;;;;;;;;;;4915577;29;20726;-72
2023/09/09 15:38:53;;;;;;;15.83;8.80;;;;;;;;;;4915505;29;20534;-72
2023/09/09 15:41:19;;;;;;;22.70;9.40;;;;;;;;;;4915109;29;20490;-71
2023/09/09 15:43:48;;;;;;;18.47;9.50;;;;;;;;;;4915651;29;20419;-71
2023/09/09 15:46:14;;;;;;;16.90;9.97;;;;;;;;;;4915161;29;20431;-71
2023/09/09 15:48:40;;;;;;;15.03;8.43;;;;;;;;;;4915636;29;20452;-71
2023/09/09 15:51:06;;;;;;;16.13;9.03;;;;;;;;;;4915166;29;20415;-71
2023/09/09 15:53:32;;;;;;;12.17;8.60;;;;;;;;;;4915428;29;20418;-71
2023/09/09 15:55:59;;;;;;;16.93;10.20;;;;;;;;;;4899818;29;20499;-71
2023/09/09 15:58:25;;;;;;;18.13;8.33;;;;;;;;;;4895788;29;20485;-71
2023/09/09 16:00:51;;;;;;;17.13;9.20;;;;;;;;;;4914331;29;20427;-71
2023/09/09 16:03:17;;;;;;;14.97;7.90;;;;;;;;;;4915282;29;20414;-69
2023/09/09 16:05:43;;;;;;;14.30;9.10;;;;;;;;;;4914338;29;20569;-69
2023/09/09 16:08:09;;;;;;;21.17;7.80;;;;;;;;;;4914650;29;20443;-69
2023/09/09 16:10:36;;;;;;;14.60;8.07;;;;;;;;;;4914902;29;20960;-71
2023/09/09 16:13:05;;;;;;;24.00;8.47;;;;;;;;;;4914901;29;20434;-71
2023/09/09 16:15:31;;;;;;;11.73;7.60;;;;;;;;;;4915154;29;20924;-71
2023/09/09 16:17:57;;;;;;;13.63;7.30;;;;;;;;;;4915238;29;20557;-71
2023/09/09 16:20:23;;;;;;;13.03;8.90;;;;;;;;;;4915214;29;20450;-71
2023/09/09 16:22:49;;;;;;;16.70;8.43;;;;;;;;;;4914355;29;20445;-71
2023/09/09 16:25:15;;;;;;;14.77;7.93;;;;;;;;;;4915233;29;20785;-71
2023/09/09 16:27:42;;;;;;;12.97;7.30;;;;;;;;;;4915202;29;20462;-71
2023/09/09 16:30:08;;;;;;;14.93;8.13;;;;;;;;;;4914851;29;20441;-71
2023/09/09 16:32:34;;;;;;;17.90;8.97;;;;;;;;;;4914707;29;20452;-71
2023/09/09 16:35:00;;;;;;;21.33;8.83;;;;;;;;;;4914376;29;20513;-71
2023/09/09 16:37:27;;;;;;;15.67;7.43;;;;;;;;;;4914758;29;21017;-71
2023/09/09 16:39:56;;;;;;;19.70;8.43;;;;;;;;;;4915032;29;20406;-71
2023/09/09 16:42:22;;;;;;;15.33;8.10;;;;;;;;;;4915034;29;20406;-71
2023/09/09 16:44:49;;;;;;;15.93;7.60;;;;;;;;;;4916042;29;20430;-71
2023/09/09 16:47:15;;;;;;;11.70;7.90;;;;;;;;;;4919797;29;20438;-71
2023/09/09 16:49:44;;;;;;;14.20;7.43;;;;;;;;;;4920658;29;20476;-71
2023/09/09 16:52:11;;;;;;;11.23;7.00;;;;;;;;;;4920339;29;20469;-71
2023/09/09 16:54:37;;;;;;;16.40;8.47;;;;;;;;;;4920676;29;20411;-70
2023/09/09 16:57:05;;;;;;;15.93;7.50;;;;;;;;;;4920191;29;20470;-70
2023/09/09 16:59:35;;;;;;;13.60;8.50;;;;;;;;;;4919879;29;20565;-71
2023/09/09 17:02:01;;;;;;;14.23;7.57;;;;;;;;;;4919724;29;20414;-71
2023/09/09 17:04:27;;;;;;;15.90;8.33;;;;;;;;;;4918622;29;20415;-71
2023/09/09 17:06:53;;;;;;;21.63;8.87;;;;;;;;;;4918126;29;20514;-72
2023/09/09 17:09:20;;;;;;;11.63;7.93;;;;;;;;;;4918343;29;20422;-71
2023/09/09 17:11:47;;;;;;;17.77;8.30;;;;;;;;;;4917565;29;20437;-71
2023/09/09 17:14:13;;;;;;;11.67;7.90;;;;;;;;;;4918215;29;20442;-71
2023/09/09 17:16:38;;;;;;;21.03;8.70;;;;;;;;;;4917738;29;20954;-71
2023/09/09 17:19:04;;;;;;;17.03;8.07;;;;;;;;;;4917864;29;20498;-71
2023/09/09 17:21:30;;;;;;;13.57;8.33;;;;;;;;;;4917507;29;20506;-71
2023/09/09 17:23:56;;;;;;;20.77;7.90;;;;;;;;;;4917721;29;20493;-71
2023/09/09 17:26:23;;;;;;;13.90;9.17;;;;;;;;;;4917354;29;20450;-71
2023/09/09 17:28:49;;;;;;;18.93;8.43;;;;;;;;;;4917699;29;20509;-71
2023/09/09 17:31:15;;;;;;;16.60;7.87;;;;;;;;;;4917620;29;20828;-71
2023/09/09 17:33:41;;;;;;;15.50;8.93;;;;;;;;;;4917862;29;20423;-71
2023/09/09 17:36:07;;;;;;;14.73;8.20;;;;;;;;;;4917128;29;20833;-71
2023/09/09 17:38:34;;;;;;;15.73;8.60;;;;;;;;;;4916872;29;20476;-71
2023/09/09 17:41:00;;;;;;;15.10;8.53;;;;;;;;;;4917309;29;20414;-70
2023/09/09 17:43:27;;;;;;;17.10;10.13;;;;;;;;;;4917361;29;20403;-70
2023/09/09 17:45:53;;;;;;;20.83;9.83;;;;;;;;;;4917560;29;20430;-70
2023/09/09 17:48:19;;;;;;;19.77;10.03;;;;;;;;;;4917161;29;20458;-70
2023/09/09 17:50:45;;;;;;;17.10;10.07;;;;;;;;;;4917293;29;20422;-70
2023/09/09 17:53:11;;;;;;;16.77;10.27;;;;;;;;;;4917020;29;20494;-69
2023/09/09 17:55:37;;;;;;;19.13;10.00;;;;;;;;;;4915721;29;20427;-70
2023/09/09 17:58:03;;;;;;;18.23;11.10;;;;;;;;;;4894867;29;20762;-70
2023/09/09 18:00:29;;;;;;;20.43;10.37;;;;;;;;;;4899944;29;20445;-70
2023/09/09 18:02:55;;;;;;;24.17;9.60;;;;;;;;;;4915502;29;20859;-70
2023/09/09 18:05:21;;;;;;;19.50;10.33;;;;;;;;;;4916724;29;20445;-70
2023/09/09 18:07:47;;;;;;;20.90;10.80;;;;;;;;;;4916095;29;20419;-70
2023/09/09 18:10:13;;;;;;;14.27;9.70;;;;;;;;;;4916855;29;20422;-70
2023/09/09 18:12:39;;;;;;;16.07;9.83;;;;;;;;;;4916220;29;20498;-70
2023/09/09 18:15:06;;;;;;;20.70;10.03;;;;;;;;;;4916857;29;20490;-70
2023/09/09 18:17:31;;;;;;;18.10;9.90;;;;;;;;;;4916629;29;20469;-70
2023/09/09 18:19:58;;;;;;;24.30;11.63;;;;;;;;;;4916444;29;20419;-71
2023/09/09 18:22:24;;;;;;;28.20;12.17;;;;;;;;;;4916242;29;20850;-72
2023/09/09 18:24:49;;;;;;;28.73;15.37;;;;;;;;;;4916051;29;20938;-72
2023/09/09 18:27:16;;;;;;;24.97;15.83;;;;;;;;;;4917347;29;20522;-72
2023/09/09 18:29:42;;;;;;;22.47;13.20;;;;;;;;;;4916275;29;20474;-72
2023/09/09 18:32:07;;;;;;;21.67;11.77;;;;;;;;;;4915747;29;20414;-72
2023/09/09 18:34:34;;;;;;;17.57;10.90;;;;;;;;;;4915494;29;20949;-72
2023/09/09 18:37:02;;;;;;;23.60;11.90;;;;;;;;;;4914434;29;20494;-72
2023/09/09 18:39:29;;;;;;;21.17;12.77;;;;;;;;;;4916062;29;20810;-72
2023/09/09 18:41:55;;;;;;;17.30;12.90;;;;;;;;;;4915716;29;20425;-71
2023/09/09 18:44:21;;;;;;;25.30;12.20;;;;;;;;;;4916375;29;20497;-72
2023/09/09 18:46:47;;;;;;;16.90;10.70;;;;;;;;;;4915784;29;20869;-72
2023/09/09 18:49:13;;;;;;;24.10;11.93;;;;;;;;;;4915810;29;20517;-72
2023/09/09 18:51:40;;;;;;;23.00;13.50;;;;;;;;;;4915488;29;20414;-72
2023/09/09 18:54:06;;;;;;;19.37;11.77;;;;;;;;;;4915755;29;20426;-72
2023/09/09 18:56:32;;;;;;;28.23;12.50;;;;;;;;;;4915908;29;20671;-72
2023/09/09 18:58:58;;;;;;;20.87;13.53;;;;;;;;;;4915992;29;20450;-72
2023/09/09 19:01:24;;;;;;;26.60;13.83;;;;;;;;;;4915473;29;20441;-71
2023/09/09 19:03:50;;;;;;;22.43;14.53;;;;;;;;;;4916428;29;20982;-71
2023/09/09 19:06:16;;;;;;;26.80;14.00;;;;;;;;;;4917915;29;20454;-71
2023/09/09 19:08:42;;;;;;;25.10;13.77;;;;;;;;;;4919743;29;20438;-73
2023/09/09 19:11:08;;;;;;;24.03;14.13;;;;;;;;;;4921063;29;20844;-71
2023/09/09 19:13:34;;;;;;;18.73;13.50;;;;;;;;;;4919851;29;20446;-72
2023/09/09 19:16:00;;;;;;;25.27;13.67;;;;;;;;;;4921264;29;20548;-72
2023/09/09 19:18:28;;;;;;;25.40;15.67;;;;;;;;;;4920750;29;20474;-72
2023/09/09 19:20:55;;;;;;;27.37;15.73;;;;;;;;;;4923929;29;20414;-72
2023/09/09 19:23:21;;;;;;;29.07;16.50;;;;;;;;;;4927205;29;20494;-72
2023/09/09 19:25:54;;;;;;;32.93;16.60;;;;;;;;;;4923381;29;20455;-72
2023/09/09 19:28:20;;;;;;;30.50;16.60;;;;;;;;;;4916570;29;20470;-72
2023/09/09 19:30:46;;;;;;;30.27;18.33;;;;;;;;;;4915825;29;20536;-72
2023/09/09 19:33:12;;;;;;;24.13;15.40;;;;;;;;;;4915485;29;20505;-72
2023/09/09 19:35:38;;;;;;;25.90;16.20;;;;;;;;;;4915681;29;20521;-72
2023/09/09 19:38:04;;;;;;;30.80;15.83;;;;;;;;;;4915233;29;20494;-72
2023/09/09 19:40:30;;;;;;;26.50;16.87;;;;;;;;;;4915992;29;20421;-72
2023/09/09 19:42:56;;;;;;;29.47;15.80;;;;;;;;;;4915364;29;20419;-73
2023/09/09 19:45:22;;;;;;;29.70;17.70;;;;;;;;;;4915043;29;20459;-72
2023/09/09 19:47:48;;;;;;;28.03;17.47;;;;;;;;;;4915634;29;20410;-71
2023/09/09 19:50:14;;;;;;;27.00;16.20;;;;;;;;;;4915446;29;20506;-72
2023/09/09 19:52:40;;;;;;;30.70;16.93;;;;;;;;;;4916967;29;20410;-71
2023/09/09 19:55:07;;;;;;;29.80;16.53;;;;;;;;;;4915873;29;20464;-72
2023/09/09 19:57:33;;;;;;;31.53;16.77;;;;;;;;;;4900971;29;20456;-72
2023/09/09 19:59:59;;;;;;;28.87;16.77;;;;;;;;;;4896163;29;20487;-71
2023/09/09 20:02:26;;;;;;;24.20;15.07;;;;;;;;;;4895312;29;20411;-71
2023/09/09 20:04:52;;;;;;;29.60;15.50;;;;;;;;;;4896050;29;20444;-72
2023/09/09 20:07:18;;;;;;;27.00;16.10;;;;;;;;;;4897616;29;20435;-72
2023/09/09 20:09:48;;;;;;;29.77;15.97;;;;;;;;;;4914595;29;20426;-72
2023/09/09 20:12:14;;;;;;;32.57;16.27;;;;;;;;;;4915046;29;20442;-72
2023/09/09 20:14:40;;;;;;;24.23;15.57;;;;;;;;;;4915423;29;20552;-71
2023/09/09 20:17:06;;;;;;;26.20;16.33;;;;;;;;;;4915084;29;20446;-72
2023/09/09 20:19:32;;;;;;;32.53;17.47;;;;;;;;;;4914707;29;20473;-72
2023/09/09 20:21:58;;;;;;;30.93;18.30;;;;;;;;;;4917563;29;20915;-71